createdAt,value
2023-12-23T00:00:03.718Z,23.4900
2023-12-23T00:00:14.792Z,23.4900
2023-12-23T00:00:25.878Z,23.4900
2023-12-23T00:00:36.984Z,23.4900
2023-12-23T00:00:48.032Z,23.4900
2023-12-23T00:00:59.113Z,23.4900
2023-12-23T00:01:10.311Z,23.4900
2023-12-23T00:01:21.475Z,23.4900
2023-12-23T00:01:32.550Z,23.4900
2023-12-23T00:01:43.599Z,23.4900
2023-12-23T00:01:54.821Z,23.4900
2023-12-23T00:02:06.256Z,23.4900
2023-12-23T00:02:17.392Z,23.4900
2023-12-23T00:02:28.518Z,23.4900
2023-12-23T00:02:39.553Z,23.4800
2023-12-23T00:02:50.618Z,23.4800
2023-12-23T00:03:01.699Z,23.4900
2023-12-23T00:03:12.764Z,23.4900
2023-12-23T00:03:23.888Z,23.4800
2023-12-23T00:03:34.971Z,23.4800
2023-12-23T00:03:46.173Z,23.4800
2023-12-23T00:03:57.319Z,23.4800
2023-12-23T00:04:08.382Z,23.4800
2023-12-23T00:04:19.443Z,23.4800
2023-12-23T00:04:30.502Z,23.4800
2023-12-23T00:04:41.599Z,23.4800
2023-12-23T00:04:52.802Z,23.4800
2023-12-23T00:05:04.022Z,23.4800
2023-12-23T00:05:15.130Z,23.4800
2023-12-23T00:05:26.528Z,23.4700
2023-12-23T00:05:37.708Z,23.4700
2023-12-23T00:05:48.832Z,23.4700
2023-12-23T00:06:00.014Z,23.4700
2023-12-23T00:06:11.305Z,23.4700
2023-12-23T00:06:22.480Z,23.4700
2023-12-23T00:06:33.539Z,23.4800
2023-12-23T00:06:44.592Z,23.4800
2023-12-23T00:06:55.674Z,23.4800
2023-12-23T00:07:06.725Z,23.4800
2023-12-23T00:07:17.792Z,23.4800
2023-12-23T00:07:28.864Z,23.4800
2023-12-23T00:07:39.968Z,23.4800
2023-12-23T00:07:51.308Z,23.4800
2023-12-23T00:08:02.730Z,23.4800
2023-12-23T00:08:13.898Z,23.4800
2023-12-23T00:08:26.664Z,23.4800
2023-12-23T00:08:39.508Z,23.4800
2023-12-23T00:08:50.534Z,23.4700
2023-12-23T00:09:01.594Z,23.4700
2023-12-23T00:09:12.664Z,23.4800
2023-12-23T00:09:23.707Z,23.4800
2023-12-23T00:09:34.745Z,23.4900
2023-12-23T00:09:45.853Z,23.4900
2023-12-23T00:09:56.922Z,23.4900
2023-12-23T00:10:08.023Z,23.4900
2023-12-23T00:10:19.141Z,23.4900
2023-12-23T00:10:30.187Z,23.4900
2023-12-23T00:10:41.349Z,23.4900
2023-12-23T00:10:52.436Z,23.4900
2023-12-23T00:11:03.546Z,23.4800
2023-12-23T00:11:14.641Z,23.4800
2023-12-23T00:11:25.795Z,23.4900
2023-12-23T00:11:36.882Z,23.4900
2023-12-23T00:11:47.979Z,23.4900
2023-12-23T00:11:59.063Z,23.4900
2023-12-23T00:12:10.295Z,23.4900
2023-12-23T00:12:21.592Z,23.4800
2023-12-23T00:12:32.837Z,23.4800
2023-12-23T00:12:44.023Z,23.4800
2023-12-23T00:12:55.075Z,23.4800
2023-12-23T00:13:06.118Z,23.4800
2023-12-23T00:13:17.181Z,23.4800
2023-12-23T00:13:28.245Z,23.4800
2023-12-23T00:13:39.305Z,23.4800
2023-12-23T00:13:50.395Z,23.4800
2023-12-23T00:14:01.515Z,23.4800
2023-12-23T00:14:12.688Z,23.4900
2023-12-23T00:14:23.757Z,23.4900
2023-12-23T00:14:34.820Z,23.4900
2023-12-23T00:14:45.916Z,23.4800
2023-12-23T00:14:56.977Z,23.4800
2023-12-23T00:15:08.034Z,23.4800
2023-12-23T00:15:19.104Z,23.4800
2023-12-23T00:15:30.174Z,23.4700
2023-12-23T00:15:41.219Z,23.4800
2023-12-23T00:15:52.281Z,23.4700
2023-12-23T00:16:03.333Z,23.4700
2023-12-23T00:16:14.414Z,23.4700
2023-12-23T00:16:25.460Z,23.4700
2023-12-23T00:16:36.535Z,23.4700
2023-12-23T00:16:47.602Z,23.4700
2023-12-23T00:16:58.797Z,23.4700
2023-12-23T00:17:09.978Z,23.4700
2023-12-23T00:17:21.422Z,23.4700
2023-12-23T00:17:32.860Z,23.4700
2023-12-23T00:17:48.418Z,23.4700
2023-12-23T00:18:01.666Z,23.4700
2023-12-23T00:18:13.360Z,23.4500
2023-12-23T00:18:24.752Z,23.4500
2023-12-23T00:18:36.432Z,23.4600
2023-12-23T00:18:47.947Z,23.4600
2023-12-23T00:18:59.268Z,23.4600
2023-12-23T00:19:10.815Z,23.4700
2023-12-23T00:19:22.239Z,23.4700
2023-12-23T00:19:33.718Z,23.4700
2023-12-23T00:19:45.228Z,23.4700
2023-12-23T00:19:56.611Z,23.4700
2023-12-23T00:20:07.974Z,23.4700
2023-12-23T00:20:19.417Z,23.4700
2023-12-23T00:20:30.884Z,23.4700
2023-12-23T00:20:42.079Z,23.4700
2023-12-23T00:20:53.358Z,23.4700
2023-12-23T00:21:04.596Z,23.4700
2023-12-23T00:21:26.762Z,23.4800
2023-12-23T00:21:37.829Z,23.4800
2023-12-23T00:21:48.958Z,23.4800
2023-12-23T00:22:00.020Z,23.4800
2023-12-23T00:22:11.088Z,23.4800
2023-12-23T00:22:22.238Z,23.4800
2023-12-23T00:22:33.307Z,23.4800
2023-12-23T00:22:44.363Z,23.4800
2023-12-23T00:22:55.481Z,23.4800
2023-12-23T00:23:06.557Z,23.4800
2023-12-23T00:23:17.716Z,23.4800
2023-12-23T00:23:28.852Z,23.4800
2023-12-23T00:23:39.930Z,23.4800
2023-12-23T00:23:51.001Z,23.4800
2023-12-23T00:24:02.062Z,23.4800
2023-12-23T00:24:13.123Z,23.4800
2023-12-23T00:24:24.198Z,23.4800
2023-12-23T00:24:35.243Z,23.4800
2023-12-23T00:24:46.315Z,23.4800
2023-12-23T00:24:57.401Z,23.4800
2023-12-23T00:25:08.434Z,23.4800
2023-12-23T00:25:19.510Z,23.4900
2023-12-23T00:25:30.553Z,23.4900
2023-12-23T00:25:41.715Z,23.4800
2023-12-23T00:25:52.916Z,23.4800
2023-12-23T00:26:04.060Z,23.4800
2023-12-23T00:26:15.258Z,23.4800
2023-12-23T00:26:26.295Z,23.4800
2023-12-23T00:26:37.361Z,23.4900
2023-12-23T00:26:48.422Z,23.4800
2023-12-23T00:26:59.473Z,23.4800
2023-12-23T00:27:10.503Z,23.4800
2023-12-23T00:27:21.581Z,23.4700
2023-12-23T00:27:32.693Z,23.4700
2023-12-23T00:27:43.752Z,23.4800
2023-12-23T00:27:54.815Z,23.4700
2023-12-23T00:28:05.861Z,23.4800
2023-12-23T00:28:16.915Z,23.4800
2023-12-23T00:28:27.958Z,23.4800
2023-12-23T00:28:39.022Z,23.4800
2023-12-23T00:28:50.168Z,23.4800
2023-12-23T00:29:01.233Z,23.4700
2023-12-23T00:29:12.355Z,23.4700
2023-12-23T00:29:23.512Z,23.4700
2023-12-23T00:29:34.554Z,23.4700
2023-12-23T00:29:45.673Z,23.4700
2023-12-23T00:29:56.741Z,23.4700
2023-12-23T00:30:07.834Z,23.4700
2023-12-23T00:30:18.966Z,23.4700
2023-12-23T00:30:30.126Z,23.4700
2023-12-23T00:30:41.210Z,23.4700
2023-12-23T00:30:52.285Z,23.4700
2023-12-23T00:31:03.360Z,23.4700
2023-12-23T00:31:14.418Z,23.4800
2023-12-23T00:31:25.481Z,23.4700
2023-12-23T00:31:36.577Z,23.4700
2023-12-23T00:31:47.675Z,23.4700
2023-12-23T00:31:58.802Z,23.4700
2023-12-23T00:32:09.896Z,23.4700
2023-12-23T00:32:20.961Z,23.4700
2023-12-23T00:32:32.049Z,23.4700
2023-12-23T00:32:43.156Z,23.4700
2023-12-23T00:32:54.226Z,23.4700
2023-12-23T00:33:05.400Z,23.4700
2023-12-23T00:33:16.615Z,23.4700
2023-12-23T00:33:27.798Z,23.4700
2023-12-23T00:33:38.958Z,23.4700
2023-12-23T00:33:50.106Z,23.4700
2023-12-23T00:34:01.246Z,23.4700
2023-12-23T00:34:12.310Z,23.4700
2023-12-23T00:34:23.392Z,23.4600
2023-12-23T00:34:34.486Z,23.4600
2023-12-23T00:34:45.548Z,23.4700
2023-12-23T00:34:56.690Z,23.4700
2023-12-23T00:35:07.925Z,23.4700
2023-12-23T00:35:19.140Z,23.4700
2023-12-23T00:35:30.291Z,23.4700
2023-12-23T00:35:41.340Z,23.4700
2023-12-23T00:35:52.423Z,23.4700
2023-12-23T00:36:03.494Z,23.4700
2023-12-23T00:36:14.568Z,23.4700
2023-12-23T00:36:25.635Z,23.4700
2023-12-23T00:36:36.706Z,23.4700
2023-12-23T00:36:47.753Z,23.4700
2023-12-23T00:36:58.844Z,23.4700
2023-12-23T00:37:09.912Z,23.4800
2023-12-23T00:37:21.014Z,23.4800
2023-12-23T00:37:32.105Z,23.4800
2023-12-23T00:37:43.172Z,23.4800
2023-12-23T00:37:54.289Z,23.4700
2023-12-23T00:38:05.433Z,23.4800
2023-12-23T00:38:16.537Z,23.4800
2023-12-23T00:38:27.645Z,23.4800
2023-12-23T00:38:38.727Z,23.4800
2023-12-23T00:38:49.763Z,23.4800
2023-12-23T00:39:00.834Z,23.4800
2023-12-23T00:39:11.899Z,23.4800
2023-12-23T00:39:22.961Z,23.4800
2023-12-23T00:39:34.108Z,23.4800
2023-12-23T00:39:45.167Z,23.4800
2023-12-23T00:39:56.233Z,23.4700
2023-12-23T00:40:07.330Z,23.4700
2023-12-23T00:40:18.394Z,23.4700
2023-12-23T00:40:29.460Z,23.4700
2023-12-23T00:40:40.566Z,23.4800
2023-12-23T00:40:51.664Z,23.4700
2023-12-23T00:41:02.725Z,23.4700
2023-12-23T00:41:13.959Z,23.4700
2023-12-23T00:41:25.033Z,23.4700
2023-12-23T00:41:36.089Z,23.4700
2023-12-23T00:41:47.189Z,23.4700
2023-12-23T00:41:58.232Z,23.4700
2023-12-23T00:42:09.310Z,23.4700
2023-12-23T00:42:20.376Z,23.4700
2023-12-23T00:42:31.449Z,23.4700
2023-12-23T00:42:42.485Z,23.4700
2023-12-23T00:42:53.534Z,23.4700
2023-12-23T00:43:04.618Z,23.4700
2023-12-23T00:43:15.684Z,23.4700
2023-12-23T00:43:26.765Z,23.4700
2023-12-23T00:43:37.860Z,23.4600
2023-12-23T00:43:48.967Z,23.4600
2023-12-23T00:44:00.122Z,23.4600
2023-12-23T00:44:11.273Z,23.4500
2023-12-23T00:44:22.405Z,23.4500
2023-12-23T00:44:33.469Z,23.4500
2023-12-23T00:44:44.531Z,23.4500
2023-12-23T00:44:55.609Z,23.4500
2023-12-23T00:45:06.667Z,23.4600
2023-12-23T00:45:17.764Z,23.4600
2023-12-23T00:45:28.812Z,23.4600
2023-12-23T00:45:39.879Z,23.4500
2023-12-23T00:45:50.950Z,23.4500
2023-12-23T00:46:02.027Z,23.4500
2023-12-23T00:46:13.062Z,23.4600
2023-12-23T00:46:24.137Z,23.4600
2023-12-23T00:46:35.324Z,23.4600
2023-12-23T00:46:46.486Z,23.4600
2023-12-23T00:46:57.588Z,23.4600
2023-12-23T00:47:08.728Z,23.4600
2023-12-23T00:47:19.817Z,23.4600
2023-12-23T00:47:35.110Z,23.4600
2023-12-23T00:47:47.877Z,23.4600
2023-12-23T00:47:59.121Z,23.4400
2023-12-23T00:48:10.303Z,23.4400
2023-12-23T00:48:21.577Z,23.4500
2023-12-23T00:48:32.775Z,23.4500
2023-12-23T00:48:43.978Z,23.4500
2023-12-23T00:48:55.130Z,23.4500
2023-12-23T00:49:06.255Z,23.4500
2023-12-23T00:49:17.350Z,23.4500
2023-12-23T00:49:28.509Z,23.4500
2023-12-23T00:49:39.650Z,23.4500
2023-12-23T00:49:50.763Z,23.4500
2023-12-23T00:50:01.863Z,23.4500
2023-12-23T00:50:12.932Z,23.4500
2023-12-23T00:50:24.096Z,23.4500
2023-12-23T00:50:35.175Z,23.4500
2023-12-23T00:50:46.240Z,23.4500
2023-12-23T00:50:57.326Z,23.4500
2023-12-23T00:51:08.387Z,23.4500
2023-12-23T00:51:19.433Z,23.4500
2023-12-23T00:51:30.509Z,23.4500
2023-12-23T00:51:41.602Z,23.4500
2023-12-23T00:51:52.671Z,23.4500
2023-12-23T00:52:03.742Z,23.4500
2023-12-23T00:52:14.826Z,23.4500
2023-12-23T00:52:25.886Z,23.4500
2023-12-23T00:52:36.997Z,23.4400
2023-12-23T00:52:48.078Z,23.4400
2023-12-23T00:52:59.142Z,23.4400
2023-12-23T00:53:10.236Z,23.4400
2023-12-23T00:53:21.333Z,23.4400
2023-12-23T00:53:32.406Z,23.4500
2023-12-23T00:53:45.873Z,23.4500
2023-12-23T00:53:58.321Z,23.4500
2023-12-23T00:54:09.372Z,23.4300
2023-12-23T00:54:20.428Z,23.4400
2023-12-23T00:54:31.471Z,23.4500
2023-12-23T00:54:42.524Z,23.4500
2023-12-23T00:54:53.567Z,23.4500
2023-12-23T00:55:04.622Z,23.4500
2023-12-23T00:55:15.717Z,23.4500
2023-12-23T00:55:26.771Z,23.4500
2023-12-23T00:55:37.857Z,23.4500
2023-12-23T00:55:48.904Z,23.4500
2023-12-23T00:55:59.949Z,23.4500
2023-12-23T00:56:11.188Z,23.4500
2023-12-23T00:56:22.274Z,23.4500
2023-12-23T00:56:33.371Z,23.4400
2023-12-23T00:56:44.478Z,23.4400
2023-12-23T00:56:55.540Z,23.4400
2023-12-23T00:57:06.649Z,23.4400
2023-12-23T00:57:17.708Z,23.4500
2023-12-23T00:57:28.774Z,23.4500
2023-12-23T00:57:39.819Z,23.4500
2023-12-23T00:57:51.234Z,23.4500
2023-12-23T00:58:02.700Z,23.4500
2023-12-23T00:58:13.772Z,23.4500
2023-12-23T00:58:24.838Z,23.4400
2023-12-23T00:58:35.925Z,23.4400
2023-12-23T00:58:47.021Z,23.4400
2023-12-23T00:58:58.130Z,23.4400
2023-12-23T00:59:09.272Z,23.4400
2023-12-23T00:59:20.404Z,23.4400
2023-12-23T00:59:31.533Z,23.4400
2023-12-23T00:59:42.572Z,23.4400
2023-12-23T00:59:53.641Z,23.4400
2023-12-23T01:00:04.720Z,23.4400
2023-12-23T01:00:15.781Z,23.4400
2023-12-23T01:00:26.924Z,23.4400
2023-12-23T01:00:38.038Z,23.4400
2023-12-23T01:00:49.112Z,23.4400
2023-12-23T01:01:00.261Z,23.4400
2023-12-23T01:01:11.397Z,23.4400
2023-12-23T01:01:22.575Z,23.4400
2023-12-23T01:01:33.676Z,23.4400
2023-12-23T01:01:44.812Z,23.4300
2023-12-23T01:01:56.002Z,23.4300
2023-12-23T01:02:07.081Z,23.4400
2023-12-23T01:02:18.215Z,23.4400
2023-12-23T01:02:29.281Z,23.4400
2023-12-23T01:02:40.354Z,23.4400
2023-12-23T01:02:51.477Z,23.4400
2023-12-23T01:03:02.499Z,23.4400
2023-12-23T01:03:13.659Z,23.4400
2023-12-23T01:03:24.785Z,23.4400
2023-12-23T01:03:35.857Z,23.4400
2023-12-23T01:03:46.964Z,23.4400
2023-12-23T01:03:58.147Z,23.4400
2023-12-23T01:04:09.402Z,23.4400
2023-12-23T01:04:20.451Z,23.4400
2023-12-23T01:04:31.528Z,23.4400
2023-12-23T01:04:42.588Z,23.4400
2023-12-23T01:04:53.682Z,23.4400
2023-12-23T01:05:04.772Z,23.4300
2023-12-23T01:05:15.944Z,23.4300
2023-12-23T01:05:27.012Z,23.4300
2023-12-23T01:05:38.086Z,23.4300
2023-12-23T01:05:49.140Z,23.4300
2023-12-23T01:06:00.254Z,23.4300
2023-12-23T01:06:11.346Z,23.4200
2023-12-23T01:06:22.451Z,23.4200
2023-12-23T01:06:33.526Z,23.4200
2023-12-23T01:06:44.652Z,23.4200
2023-12-23T01:06:55.756Z,23.4200
2023-12-23T01:07:06.825Z,23.4200
2023-12-23T01:07:17.884Z,23.4200
2023-12-23T01:07:28.941Z,23.4200
2023-12-23T01:07:40.113Z,23.4300
2023-12-23T01:07:51.413Z,23.4300
2023-12-23T01:08:02.724Z,23.4300
2023-12-23T01:08:13.817Z,23.4300
2023-12-23T01:08:24.992Z,23.4300
2023-12-23T01:08:36.078Z,23.4300
2023-12-23T01:08:47.140Z,23.4300
2023-12-23T01:08:58.261Z,23.4300
2023-12-23T01:09:09.306Z,23.4300
2023-12-23T01:09:20.369Z,23.4300
2023-12-23T01:09:31.440Z,23.4300
2023-12-23T01:09:42.501Z,23.4300
2023-12-23T01:09:53.585Z,23.4400
2023-12-23T01:10:04.649Z,23.4400
2023-12-23T01:10:15.680Z,23.4400
2023-12-23T01:10:26.758Z,23.4400
2023-12-23T01:10:37.853Z,23.4400
2023-12-23T01:10:49.027Z,23.4400
2023-12-23T01:11:00.152Z,23.4300
2023-12-23T01:11:11.215Z,23.4300
2023-12-23T01:11:22.362Z,23.4300
2023-12-23T01:11:33.440Z,23.4400
2023-12-23T01:11:44.471Z,23.4400
2023-12-23T01:11:55.546Z,23.4400
2023-12-23T01:12:06.638Z,23.4300
2023-12-23T01:12:17.727Z,23.4300
2023-12-23T01:12:28.780Z,23.4300
2023-12-23T01:12:39.850Z,23.4300
2023-12-23T01:12:50.933Z,23.4300
2023-12-23T01:13:02.002Z,23.4300
2023-12-23T01:13:13.060Z,23.4200
2023-12-23T01:13:24.134Z,23.4200
2023-12-23T01:13:35.292Z,23.4200
2023-12-23T01:13:47.019Z,23.4200
2023-12-23T01:13:58.188Z,23.4200
2023-12-23T01:14:09.365Z,23.4200
2023-12-23T01:14:20.542Z,23.4200
2023-12-23T01:14:31.642Z,23.4200
2023-12-23T01:14:42.702Z,23.4300
2023-12-23T01:14:53.765Z,23.4300
2023-12-23T01:15:05.407Z,23.4300
2023-12-23T01:15:16.472Z,23.4300
2023-12-23T01:15:27.558Z,23.4300
2023-12-23T01:15:38.612Z,23.4300
2023-12-23T01:15:49.686Z,23.4300
2023-12-23T01:16:00.748Z,23.4300
2023-12-23T01:16:11.811Z,23.4300
2023-12-23T01:16:22.881Z,23.4300
2023-12-23T01:16:34.041Z,23.4300
2023-12-23T01:16:45.187Z,23.4300
2023-12-23T01:16:56.272Z,23.4300
2023-12-23T01:17:07.397Z,23.4300
2023-12-23T01:17:18.501Z,23.4300
2023-12-23T01:17:29.740Z,23.4300
2023-12-23T01:17:40.880Z,23.4300
2023-12-23T01:17:52.164Z,23.4300
2023-12-23T01:18:03.722Z,23.4300
2023-12-23T01:18:14.878Z,23.4300
2023-12-23T01:18:26.049Z,23.4300
2023-12-23T01:18:37.341Z,23.4300
2023-12-23T01:18:48.584Z,23.4300
2023-12-23T01:18:59.677Z,23.4300
2023-12-23T01:19:10.759Z,23.4300
2023-12-23T01:19:21.856Z,23.4300
2023-12-23T01:19:32.915Z,23.4300
2023-12-23T01:19:43.975Z,23.4300
2023-12-23T01:19:55.076Z,23.4300
2023-12-23T01:20:06.177Z,23.4200
2023-12-23T01:20:17.361Z,23.4200
2023-12-23T01:20:28.523Z,23.4200
2023-12-23T01:20:39.613Z,23.4200
2023-12-23T01:20:50.662Z,23.4200
2023-12-23T01:21:01.736Z,23.4200
2023-12-23T01:21:12.806Z,23.4200
2023-12-23T01:21:23.868Z,23.4200
2023-12-23T01:21:34.942Z,23.4200
2023-12-23T01:21:46.026Z,23.4200
2023-12-23T01:21:57.086Z,23.4200
2023-12-23T01:22:08.161Z,23.4200
2023-12-23T01:22:19.208Z,23.4200
2023-12-23T01:22:30.263Z,23.4200
2023-12-23T01:22:41.354Z,23.4200
2023-12-23T01:22:52.467Z,23.4100
2023-12-23T01:23:03.550Z,23.4100
2023-12-23T01:23:14.684Z,23.4100
2023-12-23T01:23:25.771Z,23.4100
2023-12-23T01:23:36.835Z,23.4100
2023-12-23T01:23:47.939Z,23.4100
2023-12-23T01:23:59.015Z,23.4100
2023-12-23T01:24:10.085Z,23.4200
2023-12-23T01:24:21.183Z,23.4200
2023-12-23T01:24:32.225Z,23.4200
2023-12-23T01:24:43.309Z,23.4200
2023-12-23T01:24:54.364Z,23.4200
2023-12-23T01:25:05.425Z,23.4200
2023-12-23T01:25:16.499Z,23.4200
2023-12-23T01:25:27.547Z,23.4200
2023-12-23T01:25:38.607Z,23.4200
2023-12-23T01:25:49.642Z,23.4200
2023-12-23T01:26:00.699Z,23.4200
2023-12-23T01:26:11.794Z,23.4200
2023-12-23T01:26:22.967Z,23.4200
2023-12-23T01:26:34.022Z,23.4200
2023-12-23T01:26:45.095Z,23.4200
2023-12-23T01:26:56.140Z,23.4200
2023-12-23T01:27:07.231Z,23.4200
2023-12-23T01:27:18.302Z,23.4200
2023-12-23T01:27:29.331Z,23.4200
2023-12-23T01:27:40.403Z,23.4200
2023-12-23T01:27:51.764Z,23.4200
2023-12-23T01:28:03.022Z,23.4200
2023-12-23T01:28:14.116Z,23.4100
2023-12-23T01:28:25.169Z,23.4100
2023-12-23T01:28:36.257Z,23.4100
2023-12-23T01:28:47.319Z,23.4100
2023-12-23T01:28:58.433Z,23.4100
2023-12-23T01:29:09.504Z,23.4200
2023-12-23T01:29:20.552Z,23.4200
2023-12-23T01:29:31.618Z,23.4200
2023-12-23T01:29:42.721Z,23.4200
2023-12-23T01:29:53.773Z,23.4200
2023-12-23T01:30:04.895Z,23.4200
2023-12-23T01:30:16.039Z,23.4300
2023-12-23T01:30:27.097Z,23.4300
2023-12-23T01:30:38.221Z,23.4300
2023-12-23T01:30:49.313Z,23.4300
2023-12-23T01:31:00.390Z,23.4300
2023-12-23T01:31:11.404Z,23.4300
2023-12-23T01:31:22.476Z,23.4300
2023-12-23T01:31:33.543Z,23.4300
2023-12-23T01:31:44.691Z,23.4300
2023-12-23T01:31:55.756Z,23.4200
2023-12-23T01:32:06.838Z,23.4200
2023-12-23T01:32:17.965Z,23.4200
2023-12-23T01:32:29.123Z,23.4200
2023-12-23T01:32:40.247Z,23.4200
2023-12-23T01:32:51.333Z,23.4200
2023-12-23T01:33:02.594Z,23.4100
2023-12-23T01:33:13.822Z,23.4100
2023-12-23T01:33:25.020Z,23.4100
2023-12-23T01:33:36.266Z,23.4100
2023-12-23T01:33:47.656Z,23.4100
2023-12-23T01:33:58.873Z,23.4100
2023-12-23T01:34:09.954Z,23.4100
2023-12-23T01:34:21.034Z,23.4100
2023-12-23T01:34:32.090Z,23.4100
2023-12-23T01:34:43.189Z,23.4100
2023-12-23T01:34:54.254Z,23.4100
2023-12-23T01:35:05.327Z,23.4100
2023-12-23T01:35:16.534Z,23.4200
2023-12-23T01:35:27.650Z,23.4200
2023-12-23T01:35:38.728Z,23.4100
2023-12-23T01:35:49.776Z,23.4100
2023-12-23T01:36:00.823Z,23.4100
2023-12-23T01:36:11.894Z,23.4200
2023-12-23T01:36:23.097Z,23.4200
2023-12-23T01:36:34.181Z,23.4200
2023-12-23T01:36:45.234Z,23.4200
2023-12-23T01:36:56.298Z,23.4200
2023-12-23T01:37:07.364Z,23.4100
2023-12-23T01:37:18.419Z,23.4100
2023-12-23T01:37:29.493Z,23.4100
2023-12-23T01:37:40.601Z,23.4100
2023-12-23T01:37:52.028Z,23.4100
2023-12-23T01:38:06.554Z,23.4100
2023-12-23T01:38:20.328Z,23.4000
2023-12-23T01:38:31.390Z,23.3800
2023-12-23T01:38:42.474Z,23.3800
2023-12-23T01:38:53.540Z,23.3800
2023-12-23T01:39:04.617Z,23.3900
2023-12-23T01:39:15.668Z,23.3900
2023-12-23T01:39:26.740Z,23.3900
2023-12-23T01:39:37.779Z,23.4000
2023-12-23T01:39:48.859Z,23.4000
2023-12-23T01:39:59.919Z,23.4100
2023-12-23T01:40:10.977Z,23.4100
2023-12-23T01:40:22.032Z,23.4100
2023-12-23T01:40:33.119Z,23.4100
2023-12-23T01:40:44.199Z,23.4100
2023-12-23T01:40:55.261Z,23.4100
2023-12-23T01:41:06.367Z,23.4000
2023-12-23T01:41:17.533Z,23.4000
2023-12-23T01:41:28.658Z,23.4000
2023-12-23T01:41:39.686Z,23.4000
2023-12-23T01:41:50.740Z,23.4000
2023-12-23T01:42:01.811Z,23.4000
2023-12-23T01:42:12.856Z,23.4000
2023-12-23T01:42:23.926Z,23.4000
2023-12-23T01:42:34.973Z,23.4000
2023-12-23T01:42:46.071Z,23.4000
2023-12-23T01:42:57.117Z,23.4000
2023-12-23T01:43:08.178Z,23.4000
2023-12-23T01:43:19.243Z,23.3900
2023-12-23T01:43:30.306Z,23.4000
2023-12-23T01:43:41.383Z,23.4000
2023-12-23T01:43:52.477Z,23.4000
2023-12-23T01:44:03.543Z,23.4000
2023-12-23T01:44:14.734Z,23.4000
2023-12-23T01:44:25.794Z,23.4000
2023-12-23T01:44:36.856Z,23.4000
2023-12-23T01:44:47.960Z,23.3900
2023-12-23T01:44:58.979Z,23.3900
2023-12-23T01:45:10.044Z,23.3900
2023-12-23T01:45:21.097Z,23.3900
2023-12-23T01:45:34.984Z,23.4000
2023-12-23T01:45:47.671Z,23.4000
2023-12-23T01:45:58.736Z,23.3800
2023-12-23T01:46:09.800Z,23.3900
2023-12-23T01:46:20.873Z,23.3900
2023-12-23T01:46:31.918Z,23.3900
2023-12-23T01:46:42.986Z,23.4000
2023-12-23T01:46:54.054Z,23.4000
2023-12-23T01:47:05.168Z,23.4000
2023-12-23T01:47:16.246Z,23.4000
2023-12-23T01:47:27.411Z,23.4100
2023-12-23T01:47:38.515Z,23.4100
2023-12-23T01:47:50.010Z,23.4000
2023-12-23T01:48:01.265Z,23.4000
2023-12-23T01:48:12.485Z,23.4000
2023-12-23T01:48:23.999Z,23.3900
2023-12-23T01:48:35.374Z,23.3900
2023-12-23T01:48:46.484Z,23.4000
2023-12-23T01:48:57.613Z,23.4000
2023-12-23T01:49:08.717Z,23.4000
2023-12-23T01:49:19.826Z,23.4000
2023-12-23T01:49:30.875Z,23.4000
2023-12-23T01:49:41.958Z,23.4000
2023-12-23T01:49:53.034Z,23.4000
2023-12-23T01:50:04.306Z,23.4000
2023-12-23T01:50:15.480Z,23.4000
2023-12-23T01:50:26.648Z,23.4000
2023-12-23T01:50:37.711Z,23.4000
2023-12-23T01:50:48.757Z,23.4100
2023-12-23T01:50:59.830Z,23.4100
2023-12-23T01:51:10.864Z,23.4000
2023-12-23T01:51:21.935Z,23.4000
2023-12-23T01:51:33.024Z,23.4000
2023-12-23T01:51:44.071Z,23.4000
2023-12-23T01:51:55.136Z,23.4000
2023-12-23T01:52:06.178Z,23.4000
2023-12-23T01:52:17.219Z,23.4000
2023-12-23T01:52:28.247Z,23.4000
2023-12-23T01:52:39.430Z,23.4000
2023-12-23T01:52:50.565Z,23.4000
2023-12-23T01:53:01.640Z,23.4000
2023-12-23T01:53:12.754Z,23.4000
2023-12-23T01:53:23.858Z,23.4100
2023-12-23T01:53:34.889Z,23.4000
2023-12-23T01:53:45.930Z,23.4100
2023-12-23T01:53:56.996Z,23.4100
2023-12-23T01:54:08.020Z,23.4100
2023-12-23T01:54:19.047Z,23.4100
2023-12-23T01:54:30.111Z,23.4100
2023-12-23T01:54:41.193Z,23.4100
2023-12-23T01:54:52.252Z,23.4100
2023-12-23T01:55:03.309Z,23.4100
2023-12-23T01:55:14.387Z,23.4100
2023-12-23T01:55:25.448Z,23.4100
2023-12-23T01:55:36.571Z,23.4100
2023-12-23T01:55:47.634Z,23.4000
2023-12-23T01:55:58.769Z,23.4000
2023-12-23T01:56:09.863Z,23.4000
2023-12-23T01:56:21.010Z,23.4000
2023-12-23T01:56:32.111Z,23.4000
2023-12-23T01:56:43.165Z,23.4000
2023-12-23T01:56:54.228Z,23.4000
2023-12-23T01:57:05.293Z,23.4000
2023-12-23T01:57:16.358Z,23.4000
2023-12-23T01:57:27.430Z,23.4000
2023-12-23T01:57:38.484Z,23.4000
2023-12-23T01:57:49.902Z,23.4000
2023-12-23T01:58:01.086Z,23.4000
2023-12-23T01:58:12.147Z,23.3900
2023-12-23T01:58:23.221Z,23.3900
2023-12-23T01:58:34.249Z,23.3900
2023-12-23T01:58:45.343Z,23.3900
2023-12-23T01:58:56.429Z,23.3900
2023-12-23T01:59:07.521Z,23.3900
2023-12-23T01:59:18.605Z,23.3900
2023-12-23T01:59:29.661Z,23.3900
2023-12-23T01:59:40.733Z,23.4000
2023-12-23T01:59:51.796Z,23.4000
2023-12-23T02:00:02.858Z,23.4000
2023-12-23T02:00:13.971Z,23.4000
2023-12-23T02:00:25.042Z,23.4000
2023-12-23T02:00:36.209Z,23.4000
2023-12-23T02:00:47.347Z,23.3900
2023-12-23T02:00:58.522Z,23.3900
2023-12-23T02:01:09.692Z,23.4000
2023-12-23T02:01:20.894Z,23.4000
2023-12-23T02:01:32.085Z,23.3900
2023-12-23T02:01:43.260Z,23.3900
2023-12-23T02:01:54.441Z,23.3900
2023-12-23T02:02:05.662Z,23.3900
2023-12-23T02:02:16.859Z,23.4000
2023-12-23T02:02:28.478Z,23.4000
2023-12-23T02:02:39.999Z,23.4000
2023-12-23T02:02:52.031Z,23.4000
2023-12-23T02:03:03.674Z,23.3900
2023-12-23T02:03:14.778Z,23.3900
2023-12-23T02:03:25.827Z,23.3900
2023-12-23T02:03:36.957Z,23.3900
2023-12-23T02:03:48.074Z,23.3900
2023-12-23T02:03:59.156Z,23.3800
2023-12-23T02:04:10.212Z,23.3800
2023-12-23T02:04:21.292Z,23.3900
2023-12-23T02:04:32.361Z,23.3900
2023-12-23T02:04:43.481Z,23.3900
2023-12-23T02:04:54.566Z,23.3900
2023-12-23T02:05:05.853Z,23.3900
2023-12-23T02:05:16.989Z,23.3900
2023-12-23T02:05:28.120Z,23.4000
2023-12-23T02:05:39.305Z,23.4000
2023-12-23T02:05:50.588Z,23.4000
2023-12-23T02:06:01.746Z,23.4000
2023-12-23T02:06:12.925Z,23.4000
2023-12-23T02:06:24.141Z,23.4000
2023-12-23T02:06:35.210Z,23.3900
2023-12-23T02:06:46.286Z,23.3900
2023-12-23T02:06:57.341Z,23.3900
2023-12-23T02:07:08.418Z,23.3900
2023-12-23T02:07:19.453Z,23.3900
2023-12-23T02:07:30.494Z,23.3900
2023-12-23T02:07:41.561Z,23.3900
2023-12-23T02:07:52.630Z,23.3800
2023-12-23T02:08:03.709Z,23.3900
2023-12-23T02:08:14.920Z,23.3900
2023-12-23T02:08:25.959Z,23.3900
2023-12-23T02:08:37.037Z,23.3800
2023-12-23T02:08:48.101Z,23.3800
2023-12-23T02:08:59.170Z,23.3800
2023-12-23T02:09:10.250Z,23.3800
2023-12-23T02:09:21.320Z,23.3800
2023-12-23T02:09:32.359Z,23.3800
2023-12-23T02:09:43.421Z,23.3800
2023-12-23T02:09:54.470Z,23.3900
2023-12-23T02:10:05.642Z,23.3900
2023-12-23T02:10:16.690Z,23.3900
2023-12-23T02:10:27.870Z,23.3900
2023-12-23T02:10:38.961Z,23.3900
2023-12-23T02:10:50.116Z,23.3800
2023-12-23T02:11:01.229Z,23.3800
2023-12-23T02:11:12.304Z,23.3900
2023-12-23T02:11:23.395Z,23.3900
2023-12-23T02:11:36.781Z,23.3900
2023-12-23T02:11:47.936Z,23.3900
2023-12-23T02:11:59.000Z,23.3800
2023-12-23T02:12:10.084Z,23.3900
2023-12-23T02:12:21.162Z,23.3900
2023-12-23T02:12:32.188Z,23.3900
2023-12-23T02:12:43.592Z,23.3900
2023-12-23T02:13:05.480Z,23.3900
2023-12-23T02:13:13.384Z,23.3900
2023-12-23T02:13:25.256Z,23.3700
2023-12-23T02:13:36.364Z,23.3600
2023-12-23T02:13:47.438Z,23.3700
2023-12-23T02:13:58.523Z,23.3700
2023-12-23T02:14:09.680Z,23.3800
2023-12-23T02:14:20.793Z,23.3800
2023-12-23T02:14:31.896Z,23.3800
2023-12-23T02:14:42.995Z,23.3800
2023-12-23T02:14:54.106Z,23.3700
2023-12-23T02:15:05.177Z,23.3800
2023-12-23T02:15:16.309Z,23.3800